Time;durP1;ratioP1;P1;durP2;ratioP2;P2;SDS_P1;SDS_P2;PMS_P1;PMS_P2;Temp;Humidity;BMP_temperature;BMP_pressure;BME280_temperature;BME280_humidity;BME280_pressure;Samples;Min_cycle;Max_cycle;Signal;HPM_P1;HPM_P2
2022/01/07 07:01:17;;;;;;;30.00;3.83;;;;;;;;;;5530375;23;20145;-81
2022/01/07 07:03:44;;;;;;;24.95;4.38;;;;;;;;;;4949860;28;20122;-81
2022/01/07 07:06:12;;;;;;;45.80;4.50;;;;;;;;;;4950595;29;20365;-80
2022/01/07 07:08:41;;;;;;;41.80;5.00;;;;;;;;;;4946868;29;20044;-81
2022/01/07 07:11:07;;;;;;;21.73;3.22;;;;;;;;;;4950374;29;20063;-80
2022/01/07 07:13:34;;;;;;;29.35;4.55;;;;;;;;;;4950538;29;20076;-79
2022/01/07 07:16:01;;;;;;;31.45;4.25;;;;;;;;;;4950355;29;20043;-81
2022/01/07 07:18:28;;;;;;;23.25;3.30;;;;;;;;;;4950133;29;20051;-84
2022/01/07 07:20:54;;;;;;;33.33;3.63;;;;;;;;;;4933430;29;20055;-81
2022/01/07 07:23:21;;;;;;;21.08;3.30;;;;;;;;;;4951551;29;20110;-81
2022/01/07 07:25:47;;;;;;;19.90;2.65;;;;;;;;;;4948624;29;20055;-80
2022/01/07 07:28:14;;;;;;;16.33;2.88;;;;;;;;;;4949450;29;20043;-81
2022/01/07 07:30:42;;;;;;;35.67;3.90;;;;;;;;;;4951455;29;20094;-81
2022/01/07 07:38:40;;;;;;;30.67;3.67;;;;;;;;;;4949813;28;20117;-79
2022/01/07 07:41:07;;;;;;;20.23;3.38;;;;;;;;;;4947548;29;20471;-80
2022/01/07 07:43:35;;;;;;;22.02;3.63;;;;;;;;;;4946973;29;20095;-80
2022/01/07 07:46:02;;;;;;;33.00;3.85;;;;;;;;;;4947165;28;20058;-81
2022/01/07 07:48:30;;;;;;;30.42;3.70;;;;;;;;;;4946841;29;20059;-81
2022/01/07 07:50:56;;;;;;;27.77;3.97;;;;;;;;;;4946899;29;20431;-81
2022/01/07 07:53:24;;;;;;;26.17;4.25;;;;;;;;;;4950486;29;20286;-81
2022/01/07 07:55:53;;;;;;;35.13;4.40;;;;;;;;;;4948584;29;20515;-80
2022/01/07 07:58:21;;;;;;;30.63;5.55;;;;;;;;;;4948211;29;20046;-80
2022/01/07 08:00:49;;;;;;;28.70;3.72;;;;;;;;;;4948185;29;20058;-80
2022/01/07 08:03:16;;;;;;;28.58;5.07;;;;;;;;;;4947960;29;20046;-80
2022/01/07 08:05:43;;;;;;;28.48;3.65;;;;;;;;;;4950465;29;20051;-80
2022/01/07 08:08:10;;;;;;;23.38;3.75;;;;;;;;;;4945434;29;20130;-80
2022/01/07 08:10:44;;;;;;;22.55;3.33;;;;;;;;;;4947059;29;20411;-79
2022/01/07 08:18:32;;;;;;;32.88;5.45;;;;;;;;;;4948095;28;20097;-80
2022/01/07 08:21:06;;;;;;;37.88;4.40;;;;;;;;;;4916593;29;20102;-81
2022/01/07 08:23:35;;;;;;;31.20;4.97;;;;;;;;;;4947371;29;20515;-79
2022/01/07 08:26:07;;;;;;;21.98;3.35;;;;;;;;;;4949850;29;20085;-80
2022/01/07 08:28:40;;;;;;;28.83;4.20;;;;;;;;;;4948159;29;20098;-80
2022/01/07 08:36:26;;;;;;;23.92;3.58;;;;;;;;;;4947741;29;20106;-79
2022/01/07 08:38:53;;;;;;;39.20;5.20;;;;;;;;;;4948927;29;20056;-81
2022/01/07 08:41:22;;;;;;;34.47;3.78;;;;;;;;;;4949742;29;20075;-79
2022/01/07 08:43:49;;;;;;;34.05;3.78;;;;;;;;;;4947585;29;20054;-79
2022/01/07 08:46:16;;;;;;;24.90;3.67;;;;;;;;;;4948409;29;20039;-82
2022/01/07 08:48:43;;;;;;;33.67;4.70;;;;;;;;;;4949715;29;20122;-82
2022/01/07 08:51:10;;;;;;;24.92;3.92;;;;;;;;;;4946876;29;20144;-81
2022/01/07 08:53:37;;;;;;;38.38;3.80;;;;;;;;;;4949883;29;20498;-81
2022/01/07 08:56:05;;;;;;;40.13;4.93;;;;;;;;;;4947725;29;20106;-81
2022/01/07 08:58:33;;;;;;;29.83;3.85;;;;;;;;;;4947520;28;20510;-81
2022/01/07 09:01:00;;;;;;;28.60;4.10;;;;;;;;;;4946952;29;20055;-81
2022/01/07 09:03:27;;;;;;;35.97;3.90;;;;;;;;;;4946939;29;20078;-81
2022/01/07 09:05:54;;;;;;;32.25;3.50;;;;;;;;;;4948176;29;20516;-81
2022/01/07 09:08:22;;;;;;;26.95;3.80;;;;;;;;;;4944525;29;20047;-81
2022/01/07 09:10:49;;;;;;;28.23;3.65;;;;;;;;;;4946263;29;20065;-81
2022/01/07 09:13:16;;;;;;;38.45;4.53;;;;;;;;;;4930220;29;20047;-81
2022/01/07 09:15:42;;;;;;;22.80;3.60;;;;;;;;;;4947435;29;20133;-81
2022/01/07 09:18:12;;;;;;;36.88;4.32;;;;;;;;;;4946636;29;20052;-81
2022/01/07 09:20:42;;;;;;;33.85;7.32;;;;;;;;;;4949767;29;20094;-81
2022/01/07 09:23:10;;;;;;;29.33;3.42;;;;;;;;;;4947277;29;20086;-80
2022/01/07 09:25:37;;;;;;;35.63;6.90;;;;;;;;;;4947162;29;20098;-81
2022/01/07 09:28:05;;;;;;;25.02;3.50;;;;;;;;;;4948413;29;20075;-80
2022/01/07 09:30:33;;;;;;;15.80;3.28;;;;;;;;;;4947059;29;20047;-80
2022/01/07 09:32:59;;;;;;;26.20;4.03;;;;;;;;;;4915271;29;20047;-80
2022/01/07 09:35:26;;;;;;;20.92;2.70;;;;;;;;;;4945676;29;20055;-80
2022/01/07 09:37:54;;;;;;;22.40;3.03;;;;;;;;;;4947152;28;20106;-81
2022/01/07 09:40:21;;;;;;;25.98;3.40;;;;;;;;;;4946341;29;20186;-80
2022/01/07 09:42:58;;;;;;;20.85;2.63;;;;;;;;;;4930237;29;20061;-81
2022/01/07 09:45:27;;;;;;;29.33;3.00;;;;;;;;;;4946939;29;20473;-83
2022/01/07 09:47:55;;;;;;;28.45;3.13;;;;;;;;;;4944124;29;20456;-81
2022/01/07 09:50:23;;;;;;;26.25;3.25;;;;;;;;;;4933330;29;20843;-81
2022/01/07 09:52:50;;;;;;;28.27;3.20;;;;;;;;;;4945719;29;20477;-81
2022/01/07 09:55:17;;;;;;;26.50;4.53;;;;;;;;;;4938248;29;20051;-87
2022/01/07 09:57:44;;;;;;;30.58;4.07;;;;;;;;;;4921041;29;20052;-80
2022/01/07 10:00:11;;;;;;;30.27;4.45;;;;;;;;;;4932091;29;20091;-80
2022/01/07 10:02:57;;;;;;;27.73;4.63;;;;;;;;;;4947989;29;21891;-81
2022/01/07 10:05:23;;;;;;;20.75;4.00;;;;;;;;;;4948313;29;20142;-80
2022/01/07 10:07:50;;;;;;;25.23;3.08;;;;;;;;;;4946327;29;20075;-82
2022/01/07 10:10:18;;;;;;;23.55;3.47;;;;;;;;;;4938348;28;20075;-81
2022/01/07 10:12:51;;;;;;;30.95;3.90;;;;;;;;;;4931478;29;20064;-79
2022/01/07 10:15:25;;;;;;;26.08;4.10;;;;;;;;;;4949634;28;20572;-79
2022/01/07 10:17:56;;;;;;;25.48;3.30;;;;;;;;;;4951855;29;20063;-81
2022/01/07 10:20:36;;;;;;;36.92;3.60;;;;;;;;;;4951655;29;20166;-80
2022/01/07 10:23:06;;;;;;;37.25;10.02;;;;;;;;;;4945831;29;20051;-80
2022/01/07 10:25:38;;;;;;;23.80;3.78;;;;;;;;;;4950507;29;20055;-92
2022/01/07 10:28:07;;;;;;;27.50;4.03;;;;;;;;;;4951123;29;20329;-91
2022/01/07 10:30:34;;;;;;;;;;;;;;;;;;4952456;29;20134;-80
2022/01/07 10:33:15;;;;;;;25.70;3.53;;;;;;;;;;4948068;29;19933;-80
2022/01/07 10:35:42;;;;;;;25.63;3.75;;;;;;;;;;4950710;29;20688;-80
2022/01/07 10:38:14;;;;;;;24.38;3.53;;;;;;;;;;4949477;29;20130;-81
2022/01/07 10:40:41;;;;;;;28.08;3.30;;;;;;;;;;4950564;29;20051;-80
2022/01/07 10:43:09;;;;;;;30.33;4.53;;;;;;;;;;4949800;29;20528;-80
2022/01/07 10:45:37;;;;;;;23.45;4.00;;;;;;;;;;4951283;29;20055;-80
2022/01/07 10:48:06;;;;;;;25.92;4.30;;;;;;;;;;4949642;29;20074;-79
2022/01/07 10:50:37;;;;;;;25.98;4.28;;;;;;;;;;4952677;29;20055;-79
2022/01/07 10:53:22;;;;;;;34.70;4.60;;;;;;;;;;4949853;29;20519;-80
2022/01/07 10:56:00;;;;;;;23.48;3.97;;;;;;;;;;4932552;29;20519;-79
2022/01/07 10:58:28;;;;;;;34.17;4.60;;;;;;;;;;4949229;29;20043;-80
2022/01/07 11:00:54;;;;;;;33.05;5.40;;;;;;;;;;4949308;29;20536;-80
2022/01/07 11:03:22;;;;;;;29.70;3.85;;;;;;;;;;4949221;29;20051;-80
2022/01/07 11:05:49;;;;;;;32.53;4.43;;;;;;;;;;4933802;29;20051;-80
2022/01/07 11:08:16;;;;;;;29.00;4.40;;;;;;;;;;4946217;29;20052;-80
2022/01/07 11:10:43;;;;;;;28.52;4.43;;;;;;;;;;4947936;29;20062;-80
2022/01/07 11:13:12;;;;;;;26.27;4.07;;;;;;;;;;4948890;29;20051;-79
2022/01/07 11:15:39;;;;;;;34.42;3.92;;;;;;;;;;4949975;29;20047;-80
2022/01/07 11:18:05;;;;;;;40.95;4.18;;;;;;;;;;4949019;29;20075;-79
2022/01/07 11:20:32;;;;;;;29.23;4.20;;;;;;;;;;4951085;28;20150;-80
2022/01/07 11:22:59;;;;;;;33.72;5.55;;;;;;;;;;4950817;29;20122;-80
2022/01/07 11:25:32;;;;;;;29.92;4.70;;;;;;;;;;4950005;29;20457;-80
2022/01/07 11:28:00;;;;;;;26.83;4.00;;;;;;;;;;4949331;29;20110;-80
2022/01/07 11:30:35;;;;;;;23.90;3.90;;;;;;;;;;4948456;29;20157;-80
2022/01/07 11:33:16;;;;;;;21.48;4.40;;;;;;;;;;4934488;28;20106;-80
2022/01/07 11:35:45;;;;;;;26.23;3.50;;;;;;;;;;4950746;29;20043;-80
2022/01/07 11:38:30;;;;;;;25.67;4.55;;;;;;;;;;4949507;29;20066;-80
2022/01/07 11:40:57;;;;;;;29.17;4.13;;;;;;;;;;4948735;29;20106;-80
2022/01/07 11:43:31;;;;;;;24.27;3.40;;;;;;;;;;4948899;29;20150;-80
2022/01/07 11:46:00;;;;;;;29.42;3.70;;;;;;;;;;4948386;29;20516;-80
2022/01/07 11:48:30;;;;;;;35.92;4.32;;;;;;;;;;4948187;29;20049;-80
2022/01/07 11:50:59;;;;;;;29.50;4.40;;;;;;;;;;4949081;29;20043;-81
2022/01/07 11:53:49;;;;;;;35.55;4.38;;;;;;;;;;4951296;29;20043;-80
2022/01/07 11:56:23;;;;;;;38.10;5.40;;;;;;;;;;4946586;29;20393;-78
2022/01/07 11:58:55;;;;;;;34.53;4.80;;;;;;;;;;4945098;28;20133;-79
2022/01/07 12:01:24;;;;;;;32.78;4.18;;;;;;;;;;4941501;28;20122;-78
2022/01/07 12:03:56;;;;;;;28.83;5.45;;;;;;;;;;4946182;28;20523;-78
2022/01/07 12:06:31;;;;;;;41.28;5.30;;;;;;;;;;4946454;28;20579;-78
2022/01/07 12:08:58;;;;;;;35.55;5.18;;;;;;;;;;4946393;28;20051;-79
2022/01/07 12:11:27;;;;;;;44.40;5.43;;;;;;;;;;4929284;29;20055;-78
2022/01/07 12:13:54;;;;;;;34.25;5.57;;;;;;;;;;4946607;28;20051;-79
2022/01/07 12:16:26;;;;;;;42.88;5.45;;;;;;;;;;4945486;28;20075;-79
2022/01/07 12:19:23;;;;;;;29.85;5.57;;;;;;;;;;4945819;28;20134;-80
2022/01/07 12:21:55;;;;;;;38.55;5.32;;;;;;;;;;4869469;29;20553;-80
2022/01/07 12:24:31;;;;;;;44.15;5.65;;;;;;;;;;4869781;29;21807;-80
2022/01/07 12:27:07;;;;;;;40.42;4.97;;;;;;;;;;4870744;29;20053;-80
2022/01/07 12:29:39;;;;;;;41.90;5.90;;;;;;;;;;4872278;29;20053;-80
2022/01/07 12:32:11;;;;;;;47.17;5.32;;;;;;;;;;4869576;29;20081;-80
2022/01/07 12:34:40;;;;;;;48.08;5.57;;;;;;;;;;4869392;29;20105;-80
2022/01/07 12:37:14;;;;;;;37.92;5.75;;;;;;;;;;4873508;29;20414;-80
2022/01/07 12:39:44;;;;;;;52.00;5.20;;;;;;;;;;4874031;29;20072;-81
2022/01/07 12:42:11;;;;;;;48.85;6.35;;;;;;;;;;4871635;29;20049;-80
2022/01/07 12:44:40;;;;;;;32.28;6.00;;;;;;;;;;4875026;29;20101;-81
2022/01/07 12:47:08;;;;;;;37.03;6.00;;;;;;;;;;4874818;29;20109;-80
2022/01/07 12:49:46;;;;;;;39.67;5.95;;;;;;;;;;4874034;29;20053;-80
2022/01/07 12:52:23;;;;;;;51.13;7.78;;;;;;;;;;4873643;29;20041;-80
2022/01/07 12:54:59;;;;;;;56.83;6.65;;;;;;;;;;4871901;29;20057;-81
2022/01/07 12:57:33;;;;;;;49.33;6.55;;;;;;;;;;4884291;29;20378;-80
2022/01/07 13:00:09;;;;;;;49.88;6.85;;;;;;;;;;4925535;29;20048;-80
2022/01/07 13:02:37;;;;;;;43.80;6.90;;;;;;;;;;4946767;29;20047;-80
2022/01/07 13:05:13;;;;;;;44.28;7.95;;;;;;;;;;4949789;29;20055;-81
2022/01/07 13:07:54;;;;;;;62.05;7.65;;;;;;;;;;4947499;29;20043;-80
2022/01/07 13:10:24;;;;;;;59.00;7.95;;;;;;;;;;4942460;29;20574;-80
2022/01/07 13:13:05;;;;;;;51.80;7.45;;;;;;;;;;4947425;29;20105;-80
2022/01/07 13:15:39;;;;;;;53.60;8.32;;;;;;;;;;4929649;29;20504;-81
2022/01/07 13:18:28;;;;;;;48.92;7.40;;;;;;;;;;4932371;29;20547;-80
2022/01/07 13:21:12;;;;;;;63.58;8.13;;;;;;;;;;4948702;29;20051;-81
2022/01/07 13:23:42;;;;;;;64.10;8.00;;;;;;;;;;4914507;29;20575;-80
2022/01/07 13:26:10;;;;;;;69.68;8.43;;;;;;;;;;4947654;29;20470;-81
2022/01/07 13:28:40;;;;;;;59.70;7.60;;;;;;;;;;4947454;29;20075;-80
2022/01/07 13:31:09;;;;;;;63.78;8.38;;;;;;;;;;4946786;28;20077;-80
2022/01/07 13:33:37;;;;;;;59.58;7.97;;;;;;;;;;4947242;29;20039;-80
2022/01/07 13:36:35;;;;;;;67.00;8.53;;;;;;;;;;4947282;29;20264;-80
2022/01/07 13:39:04;;;;;;;67.82;8.05;;;;;;;;;;4932566;29;20097;-79
2022/01/07 13:41:31;;;;;;;71.85;13.15;;;;;;;;;;4946059;29;20074;-80
2022/01/07 13:44:04;;;;;;;61.17;8.48;;;;;;;;;;4945556;28;20059;-80
2022/01/07 13:46:34;;;;;;;64.15;7.80;;;;;;;;;;4947020;29;20047;-78
2022/01/07 13:49:05;;;;;;;63.20;7.70;;;;;;;;;;4946915;29;20043;-80
2022/01/07 13:51:34;;;;;;;64.05;8.20;;;;;;;;;;4946740;29;20055;-80
2022/01/07 13:54:04;;;;;;;76.13;9.55;;;;;;;;;;4932304;29;20059;-80
2022/01/07 13:56:32;;;;;;;71.65;10.07;;;;;;;;;;4949962;29;20073;-81
2022/01/07 13:59:03;;;;;;;72.68;9.35;;;;;;;;;;4945876;29;20119;-80
2022/01/07 14:01:30;;;;;;;71.97;9.60;;;;;;;;;;4947319;29;20051;-80
2022/01/07 14:03:57;;;;;;;70.60;9.30;;;;;;;;;;4946667;29;20039;-81
2022/01/07 14:06:24;;;;;;;64.50;8.90;;;;;;;;;;4948728;29;20137;-79
2022/01/07 14:09:11;;;;;;;57.97;7.85;;;;;;;;;;4941221;28;20522;-79
2022/01/07 14:11:38;;;;;;;45.33;6.25;;;;;;;;;;4928274;29;20063;-78
2022/01/07 14:14:16;;;;;;;43.95;7.15;;;;;;;;;;4947957;29;20059;-76
2022/01/07 14:17:10;;;;;;;59.55;6.85;;;;;;;;;;4947044;29;20123;-81
2022/01/07 14:19:57;;;;;;;49.75;6.85;;;;;;;;;;4945881;29;20047;-81
2022/01/07 14:22:24;;;;;;;46.45;7.25;;;;;;;;;;4946416;29;20138;-81
2022/01/07 14:24:51;;;;;;;55.28;6.50;;;;;;;;;;4946215;29;20058;-80
2022/01/07 14:27:33;;;;;;;54.42;7.18;;;;;;;;;;4946182;29;20047;-80
2022/01/07 14:30:06;;;;;;;56.97;7.55;;;;;;;;;;4931578;29;20040;-80
2022/01/07 14:32:33;;;;;;;63.53;7.53;;;;;;;;;;4945806;29;20039;-80
2022/01/07 14:35:00;;;;;;;64.75;8.23;;;;;;;;;;4948037;29;20345;-81
2022/01/07 14:37:29;;;;;;;85.40;8.70;;;;;;;;;;4945583;29;20075;-80
2022/01/07 14:39:57;;;;;;;74.30;9.27;;;;;;;;;;4930457;29;20455;-80
2022/01/07 14:42:24;;;;;;;67.87;8.77;;;;;;;;;;4945974;29;20543;-81
2022/01/07 14:44:53;;;;;;;69.90;8.35;;;;;;;;;;4947873;29;20595;-81
2022/01/07 14:47:20;;;;;;;;;;;;;;;;;;4948962;29;20047;-80
2022/01/07 14:49:50;;;;;;;71.40;8.27;;;;;;;;;;4946387;28;19962;-80
2022/01/07 14:52:19;;;;;;;44.08;6.43;;;;;;;;;;4945466;29;20039;-80
2022/01/07 14:54:46;;;;;;;25.75;3.70;;;;;;;;;;4946382;29;20114;-81
2022/01/07 14:57:15;;;;;;;14.75;2.58;;;;;;;;;;4948107;28;20520;-80
2022/01/07 14:59:44;;;;;;;10.68;1.45;;;;;;;;;;4951688;29;20047;-80
2022/01/07 15:02:11;;;;;;;5.97;1.50;;;;;;;;;;4949561;28;20055;-80
2022/01/07 15:04:39;;;;;;;4.60;1.38;;;;;;;;;;4949705;29;20043;-80
2022/01/07 15:07:07;;;;;;;8.93;2.35;;;;;;;;;;4949238;29;20412;-81
2022/01/07 15:09:34;;;;;;;9.00;3.67;;;;;;;;;;4943278;29;20094;-80
2022/01/07 15:12:01;;;;;;;13.43;2.72;;;;;;;;;;4933977;29;20047;-80
2022/01/07 15:14:28;;;;;;;9.95;1.80;;;;;;;;;;4948093;29;20055;-80
2022/01/07 15:16:55;;;;;;;8.63;1.20;;;;;;;;;;4949695;29;20114;-80
2022/01/07 15:19:24;;;;;;;10.38;3.60;;;;;;;;;;4950279;29;20102;-80
2022/01/07 15:21:52;;;;;;;11.82;1.58;;;;;;;;;;4949155;29;20202;-80
2022/01/07 15:24:20;;;;;;;16.35;2.00;;;;;;;;;;4948565;29;20044;-80
2022/01/07 15:26:47;;;;;;;21.55;3.20;;;;;;;;;;4951376;28;20051;-80
2022/01/07 15:29:15;;;;;;;24.95;3.03;;;;;;;;;;4950009;29;20047;-79
2022/01/07 15:31:42;;;;;;;28.70;3.63;;;;;;;;;;4949069;29;20050;-80
2022/01/07 15:34:10;;;;;;;29.85;3.53;;;;;;;;;;4931314;29;20532;-80
2022/01/07 15:36:41;;;;;;;33.15;5.03;;;;;;;;;;4949042;29;20103;-80
2022/01/07 15:39:13;;;;;;;37.92;4.72;;;;;;;;;;4948518;29;20055;-80
2022/01/07 15:41:41;;;;;;;71.32;14.88;;;;;;;;;;4951100;29;20073;-80
2022/01/07 15:44:09;;;;;;;50.28;5.18;;;;;;;;;;4949095;29;20141;-81
2022/01/07 15:46:36;;;;;;;61.13;6.38;;;;;;;;;;4948586;29;20051;-80
2022/01/07 15:49:04;;;;;;;58.20;6.18;;;;;;;;;;4948505;29;20051;-81
2022/01/07 15:51:31;;;;;;;56.92;6.43;;;;;;;;;;4948793;29;20555;-81
2022/01/07 15:53:58;;;;;;;50.88;5.35;;;;;;;;;;4949046;29;20039;-80
2022/01/07 15:56:25;;;;;;;50.08;6.22;;;;;;;;;;4933405;29;20468;-79
2022/01/07 15:58:52;;;;;;;64.80;8.23;;;;;;;;;;4949735;29;20049;-80
2022/01/07 16:01:20;;;;;;;62.20;7.78;;;;;;;;;;4947386;28;20082;-79
2022/01/07 16:03:47;;;;;;;60.70;7.10;;;;;;;;;;4948899;29;20039;-79
2022/01/07 16:06:14;;;;;;;60.45;7.78;;;;;;;;;;4947621;28;20420;-80
2022/01/07 16:08:41;;;;;;;79.45;16.52;;;;;;;;;;4927340;29;20079;-80
2022/01/07 16:11:08;;;;;;;70.40;9.15;;;;;;;;;;4948896;29;20318;-79
2022/01/07 16:13:37;;;;;;;89.97;12.05;;;;;;;;;;4931013;29;20081;-80
2022/01/07 16:16:04;;;;;;;;;;;;;;;;;;4948449;29;20043;-81
2022/01/07 16:18:31;;;;;;;57.53;7.85;;;;;;;;;;4947984;29;20017;-81
2022/01/07 16:20:57;;;;;;;41.55;5.65;;;;;;;;;;4932884;29;20055;-78
2022/01/07 16:23:24;;;;;;;42.90;6.05;;;;;;;;;;4934026;29;20495;-79
2022/01/07 16:25:51;;;;;;;55.97;5.65;;;;;;;;;;4949126;29;20089;-80
2022/01/07 16:28:17;;;;;;;50.35;6.60;;;;;;;;;;4949333;29;20059;-80
2022/01/07 16:30:47;;;;;;;48.80;5.40;;;;;;;;;;4950291;29;20075;-80
2022/01/07 16:33:18;;;;;;;37.45;4.75;;;;;;;;;;4947307;29;20058;-80
2022/01/07 16:35:46;;;;;;;50.05;6.78;;;;;;;;;;4946993;29;20051;-81
2022/01/07 16:38:14;;;;;;;50.05;6.05;;;;;;;;;;4944530;29;20407;-81
2022/01/07 16:40:41;;;;;;;65.47;6.90;;;;;;;;;;4926380;29;20051;-80
2022/01/07 16:43:08;;;;;;;51.03;6.00;;;;;;;;;;4946132;29;20063;-80
2022/01/07 16:45:35;;;;;;;57.45;5.97;;;;;;;;;;4946890;29;20043;-80
2022/01/07 16:48:03;;;;;;;53.50;5.72;;;;;;;;;;4947692;28;20130;-80
2022/01/07 16:50:30;;;;;;;43.78;6.13;;;;;;;;;;4949608;28;20039;-81
2022/01/07 16:52:57;;;;;;;53.95;6.03;;;;;;;;;;4949539;29;20055;-80
2022/01/07 16:55:25;;;;;;;53.05;6.05;;;;;;;;;;4949223;29;20043;-82
2022/01/07 16:57:52;;;;;;;50.10;5.40;;;;;;;;;;4947291;29;20055;-80
2022/01/07 17:00:19;;;;;;;65.57;6.28;;;;;;;;;;4949140;29;20039;-82
2022/01/07 17:02:47;;;;;;;59.13;6.13;;;;;;;;;;4949425;28;20175;-81
2022/01/07 17:05:15;;;;;;;47.47;6.38;;;;;;;;;;4948175;29;20043;-82
2022/01/07 17:07:42;;;;;;;55.90;5.93;;;;;;;;;;4949156;29;20040;-80
2022/01/07 17:10:10;;;;;;;49.67;6.22;;;;;;;;;;4948496;29;20074;-80
2022/01/07 17:12:37;;;;;;;51.70;6.65;;;;;;;;;;4949133;29;20051;-80
2022/01/07 17:15:05;;;;;;;52.80;7.07;;;;;;;;;;4949231;29;20102;-82
2022/01/07 17:17:33;;;;;;;65.57;8.02;;;;;;;;;;4947456;29;20043;-79
2022/01/07 17:20:01;;;;;;;59.03;6.85;;;;;;;;;;4947176;28;20432;-79
2022/01/07 17:22:28;;;;;;;52.27;7.90;;;;;;;;;;4946415;29;20043;-80
2022/01/07 17:24:54;;;;;;;58.20;8.07;;;;;;;;;;4947315;28;20298;-80
2022/01/07 17:27:23;;;;;;;51.25;6.22;;;;;;;;;;4944787;29;20075;-80
2022/01/07 17:29:50;;;;;;;55.67;6.78;;;;;;;;;;4948927;29;20047;-80
2022/01/07 17:32:17;;;;;;;46.65;6.43;;;;;;;;;;4949164;29;20295;-80
2022/01/07 17:34:50;;;;;;;57.03;7.47;;;;;;;;;;4946738;29;20074;-81
2022/01/07 17:37:19;;;;;;;45.15;6.85;;;;;;;;;;4946842;29;20105;-81
2022/01/07 17:39:46;;;;;;;49.00;6.13;;;;;;;;;;4947546;29;20078;-81
2022/01/07 17:42:14;;;;;;;49.63;8.73;;;;;;;;;;4947212;29;20047;-81
2022/01/07 17:44:40;;;;;;;38.53;5.93;;;;;;;;;;4949485;29;20051;-80
2022/01/07 17:47:08;;;;;;;39.65;6.32;;;;;;;;;;4947950;29;20051;-81
2022/01/07 17:49:35;;;;;;;41.47;5.75;;;;;;;;;;4944432;29;20043;-81
2022/01/07 17:52:03;;;;;;;42.22;5.43;;;;;;;;;;4947558;29;20039;-81
2022/01/07 17:54:29;;;;;;;39.50;5.03;;;;;;;;;;4946670;29;20051;-81
2022/01/07 17:56:56;;;;;;;32.35;5.65;;;;;;;;;;4946626;29;20066;-81
2022/01/07 17:59:23;;;;;;;38.38;5.25;;;;;;;;;;4948001;28;20095;-82
2022/01/07 18:01:50;;;;;;;45.03;5.75;;;;;;;;;;4946275;28;20055;-81
2022/01/07 18:04:16;;;;;;;40.53;5.80;;;;;;;;;;4946991;28;20055;-82
2022/01/07 18:06:43;;;;;;;43.40;7.18;;;;;;;;;;4947560;29;20150;-82
2022/01/07 18:09:12;;;;;;;48.08;5.38;;;;;;;;;;4945751;29;20128;-82
2022/01/07 18:11:39;;;;;;;45.42;12.20;;;;;;;;;;4948595;28;20047;-82
2022/01/07 18:14:06;;;;;;;49.22;9.65;;;;;;;;;;4946466;29;20035;-81
2022/01/07 18:16:32;;;;;;;39.78;5.28;;;;;;;;;;4946267;29;20122;-81
2022/01/07 18:19:03;;;;;;;41.75;8.00;;;;;;;;;;4943923;29;20047;-82
2022/01/07 18:21:29;;;;;;;44.80;6.53;;;;;;;;;;4945576;29;20050;-81
2022/01/07 18:23:56;;;;;;;53.55;8.25;;;;;;;;;;4945819;28;20811;-81
2022/01/07 18:26:23;;;;;;;62.33;7.75;;;;;;;;;;4947610;29;20084;-81
2022/01/07 18:28:49;;;;;;;58.05;7.43;;;;;;;;;;4948046;29;20079;-82
2022/01/07 18:31:20;;;;;;;44.65;6.30;;;;;;;;;;4946491;28;20075;-81
2022/01/07 18:33:47;;;;;;;55.55;6.40;;;;;;;;;;4930107;29;20053;-80
2022/01/07 18:36:15;;;;;;;60.97;8.85;;;;;;;;;;4950530;29;20047;-80
2022/01/07 18:38:42;;;;;;;63.55;9.43;;;;;;;;;;4949653;29;20044;-81
2022/01/07 18:41:08;;;;;;;63.83;7.07;;;;;;;;;;4951838;29;20043;-80
2022/01/07 18:43:35;;;;;;;71.00;8.85;;;;;;;;;;4951403;29;20047;-82
2022/01/07 18:46:03;;;;;;;65.47;8.57;;;;;;;;;;4950143;29;20504;-81
2022/01/07 18:48:35;;;;;;;58.13;8.23;;;;;;;;;;4949842;29;20047;-81
2022/01/07 18:51:03;;;;;;;69.63;8.52;;;;;;;;;;4935107;29;20102;-81
2022/01/07 18:53:30;;;;;;;69.07;8.67;;;;;;;;;;4949236;29;20043;-82
2022/01/07 18:55:57;;;;;;;71.93;10.02;;;;;;;;;;4948064;29;20066;-79
2022/01/07 18:58:24;;;;;;;59.75;8.60;;;;;;;;;;4950149;29;24981;-80
2022/01/07 19:00:51;;;;;;;70.88;9.25;;;;;;;;;;4948446;29;20085;-80
2022/01/07 19:03:35;;;;;;;79.00;8.95;;;;;;;;;;4948152;29;20465;-80
2022/01/07 19:06:02;;;;;;;68.68;8.60;;;;;;;;;;4949290;29;20455;-82
2022/01/07 19:08:29;;;;;;;68.53;8.10;;;;;;;;;;4934093;29;20567;-81
2022/01/07 19:10:56;;;;;;;75.70;7.43;;;;;;;;;;4950393;29;20114;-82
2022/01/07 19:13:23;;;;;;;68.65;9.50;;;;;;;;;;4932572;29;20515;-79
2022/01/07 19:15:50;;;;;;;73.80;8.93;;;;;;;;;;4950473;29;20440;-81
2022/01/07 19:18:22;;;;;;;71.55;8.63;;;;;;;;;;4949611;29;20401;-79
2022/01/07 19:20:50;;;;;;;75.35;9.63;;;;;;;;;;4949981;29;20039;-80
2022/01/07 19:23:18;;;;;;;55.15;8.02;;;;;;;;;;4951254;29;20098;-79
2022/01/07 19:25:45;;;;;;;71.10;8.63;;;;;;;;;;4950004;29;20469;-80
2022/01/07 19:28:12;;;;;;;66.97;8.80;;;;;;;;;;4947162;29;20070;-80
2022/01/07 19:30:41;;;;;;;70.88;8.02;;;;;;;;;;4950432;29;20074;-80
2022/01/07 19:33:11;;;;;;;73.60;8.15;;;;;;;;;;4949215;29;20070;-79
2022/01/07 19:35:38;;;;;;;76.03;9.25;;;;;;;;;;4950820;29;20051;-79
2022/01/07 19:38:05;;;;;;;66.78;8.32;;;;;;;;;;4949473;29;20063;-80
2022/01/07 19:40:33;;;;;;;67.30;7.88;;;;;;;;;;4950436;29;20066;-79
2022/01/07 19:43:00;;;;;;;69.28;9.02;;;;;;;;;;4941416;29;20523;-79
2022/01/07 19:45:26;;;;;;;65.55;9.23;;;;;;;;;;4949454;29;20047;-79
2022/01/07 19:47:53;;;;;;;64.28;8.75;;;;;;;;;;4950309;29;20548;-80
2022/01/07 19:50:20;;;;;;;69.68;9.20;;;;;;;;;;4950461;29;20043;-79
2022/01/07 19:52:47;;;;;;;75.47;8.95;;;;;;;;;;4949651;29;20492;-81
2022/01/07 19:55:14;;;;;;;63.83;7.30;;;;;;;;;;4949571;29;20073;-80
2022/01/07 19:57:41;;;;;;;64.07;8.30;;;;;;;;;;4949773;29;20050;-80
2022/01/07 20:00:12;;;;;;;58.00;8.57;;;;;;;;;;4948070;29;22860;-80
2022/01/07 20:02:40;;;;;;;74.88;10.85;;;;;;;;;;4951456;29;20070;-81
2022/01/07 20:05:08;;;;;;;132.43;39.50;;;;;;;;;;4948414;29;20056;-80
2022/01/07 20:07:35;;;;;;;59.92;8.48;;;;;;;;;;4948578;29;20054;-80
2022/01/07 20:10:03;;;;;;;64.43;8.85;;;;;;;;;;4942185;29;20067;-81
2022/01/07 20:12:30;;;;;;;70.53;9.90;;;;;;;;;;4948541;29;20114;-80
2022/01/07 20:14:56;;;;;;;66.80;8.68;;;;;;;;;;4949734;29;20048;-80
2022/01/07 20:17:23;;;;;;;55.25;8.07;;;;;;;;;;4950435;29;20098;-81
2022/01/07 20:19:49;;;;;;;76.43;9.20;;;;;;;;;;4949141;29;20062;-80
2022/01/07 20:22:16;;;;;;;60.95;8.50;;;;;;;;;;4947688;29;20035;-80
2022/01/07 20:24:43;;;;;;;75.32;9.88;;;;;;;;;;4949431;29;20047;-80
2022/01/07 20:27:09;;;;;;;80.15;9.75;;;;;;;;;;4947171;29;20789;-79
2022/01/07 20:29:36;;;;;;;68.47;8.75;;;;;;;;;;4950622;29;20583;-80
2022/01/07 20:32:03;;;;;;;57.67;8.27;;;;;;;;;;4945940;29;20567;-80
2022/01/07 20:34:30;;;;;;;47.97;6.20;;;;;;;;;;4947188;29;20110;-80
2022/01/07 20:36:57;;;;;;;41.25;6.07;;;;;;;;;;4947898;29;20048;-79
2022/01/07 20:39:26;;;;;;;39.20;5.15;;;;;;;;;;4947258;29;20102;-79
2022/01/07 20:41:52;;;;;;;34.85;4.88;;;;;;;;;;4948863;29;20126;-79
2022/01/07 20:44:20;;;;;;;32.42;4.25;;;;;;;;;;4920383;29;20652;-81
2022/01/07 20:46:47;;;;;;;29.95;4.45;;;;;;;;;;4943723;28;20078;-82
2022/01/07 20:49:14;;;;;;;26.75;4.20;;;;;;;;;;4945530;28;20139;-82
2022/01/07 20:51:41;;;;;;;21.48;3.80;;;;;;;;;;4946060;28;20770;-81
2022/01/07 20:54:08;;;;;;;27.90;3.42;;;;;;;;;;4944690;28;20047;-82
2022/01/07 20:56:35;;;;;;;28.63;4.25;;;;;;;;;;4946332;28;20098;-81
2022/01/07 20:59:02;;;;;;;28.58;3.65;;;;;;;;;;4945755;28;20051;-80
2022/01/07 21:01:29;;;;;;;41.08;4.60;;;;;;;;;;4945718;28;20055;-81
2022/01/07 21:03:55;;;;;;;40.05;4.85;;;;;;;;;;4945468;28;20102;-81
2022/01/07 21:06:23;;;;;;;40.78;6.20;;;;;;;;;;4944881;28;20055;-82
2022/01/07 21:08:50;;;;;;;46.63;6.43;;;;;;;;;;4946027;29;20459;-82
2022/01/07 21:11:16;;;;;;;37.85;5.85;;;;;;;;;;4946171;28;20492;-82
2022/01/07 21:13:46;;;;;;;38.08;4.65;;;;;;;;;;4945506;28;20050;-82
2022/01/07 21:16:13;;;;;;;50.35;6.13;;;;;;;;;;4944355;28;20121;-82
2022/01/07 21:18:39;;;;;;;46.80;6.53;;;;;;;;;;4945762;28;20063;-81
2022/01/07 21:21:06;;;;;;;50.78;6.97;;;;;;;;;;4944402;28;20086;-82
2022/01/07 21:23:33;;;;;;;51.15;6.72;;;;;;;;;;4945772;28;20472;-82
2022/01/07 21:26:00;;;;;;;46.17;8.32;;;;;;;;;;4945341;28;20051;-82
2022/01/07 21:28:27;;;;;;;48.60;6.60;;;;;;;;;;4939074;28;20106;-80
2022/01/07 21:30:53;;;;;;;47.83;5.88;;;;;;;;;;4932097;28;20094;-81
2022/01/07 21:33:21;;;;;;;49.15;6.70;;;;;;;;;;4930813;28;20424;-82
2022/01/07 21:35:48;;;;;;;46.47;6.07;;;;;;;;;;4924573;29;20163;-81
2022/01/07 21:38:18;;;;;;;38.55;5.70;;;;;;;;;;4945952;28;20052;-79
2022/01/07 21:40:45;;;;;;;49.65;5.63;;;;;;;;;;4945604;28;20071;-83
2022/01/07 21:43:12;;;;;;;45.58;5.78;;;;;;;;;;4938161;28;20103;-81
2022/01/07 21:45:39;;;;;;;55.15;6.57;;;;;;;;;;4940118;28;20071;-81
2022/01/07 21:48:06;;;;;;;49.10;7.35;;;;;;;;;;4944418;28;20046;-82
2022/01/07 21:50:33;;;;;;;54.55;6.78;;;;;;;;;;4945217;29;20043;-81
2022/01/07 21:53:00;;;;;;;61.80;7.25;;;;;;;;;;4927370;29;20051;-81
2022/01/07 21:55:28;;;;;;;68.47;9.60;;;;;;;;;;4942601;28;20137;-81
2022/01/07 21:57:57;;;;;;;74.97;8.60;;;;;;;;;;4943357;28;20051;-80